sensor_id;sensor_type;location;lat;lon;timestamp;pressure;altitude;pressure_sealevel;temperature;humidity
57799;BME280;43626;53.866;30.298;2022-10-04T14:34:23;1013.4;;;5.5;87.6
57799;BME280;43626;53.866;30.298;2022-10-04T14:39:01;1013.5;;;5.8;88.4
57799;BME280;43626;53.866;30.298;2022-10-04T14:45:04;1013.5;;;6.4;87.8
57799;BME280;43626;53.866;30.298;2022-10-04T14:48:55;1013.6;;;6.9;85
57799;BME280;43626;53.866;30.298;2022-10-04T14:53:53;1013.6;;;7.4;82.4
57799;BME280;43626;53.866;30.298;2022-10-04T14:58:56;1013.7;;;7.7;80.3
57799;BME280;43626;53.866;30.298;2022-10-04T15:04:09;1013.7;;;7.8;78.9
57799;BME280;43626;53.866;30.298;2022-10-04T15:10:28;1013.8;;;7.9;78.2
57799;BME280;43626;53.866;30.298;2022-10-04T15:14:37;1013.8;;;8;78.4
57799;BME280;43626;53.866;30.298;2022-10-04T15:19:25;1013.9;;;8;78.5
57799;BME280;43626;53.866;30.298;2022-10-04T15:23:54;1014;;;8.1;78.6
57799;BME280;43626;53.866;30.298;2022-10-04T15:29:23;1014.1;;;8.1;78.5
57799;BME280;43626;53.866;30.298;2022-10-04T15:38:46;1014.2;;;8.2;78
57799;BME280;43626;53.866;30.298;2022-10-04T15:43:56;1014.3;;;8.2;77
57799;BME280;43626;53.866;30.298;2022-10-04T15:48:57;1014.4;;;8.2;76.3
57799;BME280;43626;53.866;30.298;2022-10-04T15:54:14;1014.5;;;8.2;76
57799;BME280;43626;53.866;30.298;2022-10-04T15:59:41;1014.5;;;8.2;75.6
57799;BME280;43626;53.866;30.298;2022-10-04T16:14:06;1014.8;;;8.2;75.8
57799;BME280;43626;53.866;30.298;2022-10-04T16:19:06;1014.8;;;8.2;75.9
57799;BME280;43626;53.866;30.298;2022-10-04T16:30:21;1015;;;8.2;76.2
57799;BME280;43626;53.866;30.298;2022-10-04T16:33:36;1015;;;8.2;76.3
57799;BME280;43626;53.866;30.298;2022-10-04T16:38:48;1015;;;8.2;76.1
57799;BME280;43626;53.866;30.298;2022-10-04T16:44:50;1015.1;;;8.2;76.1
57799;BME280;43626;53.866;30.298;2022-10-04T16:49:15;1015.1;;;8.2;76
57799;BME280;43626;53.866;30.298;2022-10-04T16:53:48;1015.2;;;8.3;75.6
57799;BME280;43626;53.866;30.298;2022-10-04T16:58:49;1015.3;;;8.2;75.5
57799;BME280;43626;53.866;30.298;2022-10-04T17:04:24;1015.4;;;8.3;75.7
57799;BME280;43626;53.866;30.298;2022-10-04T17:13:59;1015.4;;;8.3;76
57799;BME280;43626;53.866;30.298;2022-10-04T17:18:50;1015.4;;;8.3;76
57799;BME280;43626;53.866;30.298;2022-10-04T17:23:52;1015.5;;;8.3;76
57799;BME280;43626;53.866;30.298;2022-10-04T17:30:03;1015.5;;;8.3;76
57799;BME280;43626;53.866;30.298;2022-10-04T17:36:12;1015.5;;;8.2;75.6
57799;BME280;43626;53.866;30.298;2022-10-04T17:39:00;1015.6;;;8.2;75.5
57799;BME280;43626;53.866;30.298;2022-10-04T17:44:33;1015.6;;;8.2;75.4
57799;BME280;43626;53.866;30.298;2022-10-04T17:49:24;1015.5;;;8.2;75.5
57799;BME280;43626;53.866;30.298;2022-10-04T17:54:21;1015.6;;;8.2;75.4
57799;BME280;43626;53.866;30.298;2022-10-04T17:59:23;1015.7;;;8.1;75.4
57799;BME280;43626;53.866;30.298;2022-10-04T18:04:26;1015.8;;;8.1;75.6
57799;BME280;43626;53.866;30.298;2022-10-04T18:08:57;1015.8;;;8.1;75.7
57799;BME280;43626;53.866;30.298;2022-10-04T18:13:38;1015.9;;;8.2;75.7
57799;BME280;43626;53.866;30.298;2022-10-04T18:18:39;1015.9;;;8.2;75.5
57799;BME280;43626;53.866;30.298;2022-10-04T18:24:19;1016;;;8.2;75.3
57799;BME280;43626;53.866;30.298;2022-10-04T18:29:12;1016;;;8.2;75
57799;BME280;43626;53.866;30.298;2022-10-04T18:34:26;1016;;;8.2;74.6
57799;BME280;43626;53.866;30.298;2022-10-04T18:39:19;1016.1;;;8.3;74.5
57799;BME280;43626;53.866;30.298;2022-10-04T18:44:12;1016.1;;;8.3;74.6
57799;BME280;43626;53.866;30.298;2022-10-04T18:48:56;1016.1;;;8.3;74.5
57799;BME280;43626;53.866;30.298;2022-10-04T18:59:06;1016.2;;;8.3;74.9
57799;BME280;43626;53.866;30.298;2022-10-04T19:04:07;1016.3;;;8.3;75
57799;BME280;43626;53.866;30.298;2022-10-04T19:08:55;1016.3;;;8.3;75.2
57799;BME280;43626;53.866;30.298;2022-10-04T19:14:30;1016.3;;;8.2;75.2
57799;BME280;43626;53.866;30.298;2022-10-04T19:19:41;1016.4;;;8.3;75.2
57799;BME280;43626;53.866;30.298;2022-10-04T19:28:43;1016.5;;;8.2;74.1
57799;BME280;43626;53.866;30.298;2022-10-04T19:34:07;1016.5;;;8.2;73.9
57799;BME280;43626;53.866;30.298;2022-10-04T19:39:36;1016.5;;;8.2;73.9
57799;BME280;43626;53.866;30.298;2022-10-04T19:44:29;1016.6;;;8.1;73.9
57799;BME280;43626;53.866;30.298;2022-10-04T19:48:55;1016.6;;;8.1;73.7
57799;BME280;43626;53.866;30.298;2022-10-04T19:53:40;1016.7;;;8.1;73.9
57799;BME280;43626;53.866;30.298;2022-10-04T19:58:52;1016.7;;;8;73.9
57799;BME280;43626;53.866;30.298;2022-10-04T20:03:57;1016.8;;;8;73.8
57799;BME280;43626;53.866;30.298;2022-10-04T20:08:55;1016.8;;;8;73.9
57799;BME280;43626;53.866;30.298;2022-10-04T20:14:48;1016.9;;;8;73.9
57799;BME280;43626;53.866;30.298;2022-10-04T20:19:13;1016.8;;;8;74
57799;BME280;43626;53.866;30.298;2022-10-04T20:33:42;1017;;;8;73.4
57799;BME280;43626;53.866;30.298;2022-10-04T20:39:56;1017.1;;;8;73
57799;BME280;43626;53.866;30.298;2022-10-04T20:43:51;1017.1;;;8;73.1
57799;BME280;43626;53.866;30.298;2022-10-04T20:48:35;1017.2;;;8;73
57799;BME280;43626;53.866;30.298;2022-10-04T20:54:19;1017.2;;;8;73.3
57799;BME280;43626;53.866;30.298;2022-10-04T20:59:17;1017.3;;;8.1;73.1
57799;BME280;43626;53.866;30.298;2022-10-04T21:04:13;1017.3;;;8;73.3
57799;BME280;43626;53.866;30.298;2022-10-04T21:09:03;1017.4;;;8;73.7
57799;BME280;43626;53.866;30.298;2022-10-04T21:14:09;1017.4;;;7.9;73.9
57799;BME280;43626;53.866;30.298;2022-10-04T21:18:45;1017.4;;;7.9;73.9
57799;BME280;43626;53.866;30.298;2022-10-04T21:24:25;1017.5;;;7.9;73.8
57799;BME280;43626;53.866;30.298;2022-10-04T21:29:19;1017.5;;;7.9;73.6
57799;BME280;43626;53.866;30.298;2022-10-04T21:33:35;1017.5;;;7.9;73.6
57799;BME280;43626;53.866;30.298;2022-10-04T21:38:45;1017.6;;;7.9;73.4
57799;BME280;43626;53.866;30.298;2022-10-04T21:44:17;1017.7;;;7.9;73.5
57799;BME280;43626;53.866;30.298;2022-10-04T21:49:19;1017.8;;;7.9;73.5
57799;BME280;43626;53.866;30.298;2022-10-04T21:54:09;1017.8;;;7.9;73.6
57799;BME280;43626;53.866;30.298;2022-10-04T21:58:53;1017.9;;;7.9;73.6
57799;BME280;43626;53.866;30.298;2022-10-04T22:04:17;1017.9;;;7.9;73.6
57799;BME280;43626;53.866;30.298;2022-10-04T22:09:17;1017.9;;;7.9;73.8
57799;BME280;43626;53.866;30.298;2022-10-04T22:13:55;1018;;;7.9;74.1
57799;BME280;43626;53.866;30.298;2022-10-04T22:18:55;1018.1;;;7.8;74.5
57799;BME280;43626;53.866;30.298;2022-10-04T22:23:36;1018.2;;;7.8;74.6
57799;BME280;43626;53.866;30.298;2022-10-04T22:28:35;1018.3;;;7.8;74.7
57799;BME280;43626;53.866;30.298;2022-10-04T22:33:55;1018.3;;;7.8;74.9
57799;BME280;43626;53.866;30.298;2022-10-04T22:38:47;1018.3;;;7.7;75
57799;BME280;43626;53.866;30.298;2022-10-04T22:44:18;1018.4;;;7.8;75
57799;BME280;43626;53.866;30.298;2022-10-04T22:49:07;1018.5;;;7.8;74.9
57799;BME280;43626;53.866;30.298;2022-10-04T22:53:51;1018.5;;;7.9;74.7
57799;BME280;43626;53.866;30.298;2022-10-04T22:59:16;1018.6;;;7.9;74.8
57799;BME280;43626;53.866;30.298;2022-10-04T23:04:04;1018.6;;;7.9;74.8
57799;BME280;43626;53.866;30.298;2022-10-04T23:08:57;1018.7;;;7.9;75
57799;BME280;43626;53.866;30.298;2022-10-04T23:13:35;1018.7;;;7.9;75.1
57799;BME280;43626;53.866;30.298;2022-10-04T23:18:33;1018.7;;;7.9;75.2
57799;BME280;43626;53.866;30.298;2022-10-04T23:24:14;1018.8;;;7.9;75
57799;BME280;43626;53.866;30.298;2022-10-04T23:28:45;1018.9;;;7.9;74.8
57799;BME280;43626;53.866;30.298;2022-10-04T23:33:35;1019;;;7.9;74.8
57799;BME280;43626;53.866;30.298;2022-10-04T23:39:05;1019.1;;;7.9;75
57799;BME280;43626;53.866;30.298;2022-10-04T23:43:51;1019.2;;;7.9;75.1
57799;BME280;43626;53.866;30.298;2022-10-04T23:48:53;1019.3;;;7.9;75.2
57799;BME280;43626;53.866;30.298;2022-10-04T23:54:10;1019.3;;;7.9;75.2
57799;BME280;43626;53.866;30.298;2022-10-04T23:59:14;1019.4;;;7.9;75.1
